sensor_id;sensor_type;location;lat;lon;timestamp;pressure;altitude;pressure_sealevel;temperature;humidity
77165;BME280;66140;50.280;18.660;2023-04-03T05:01:08;99717.41;;;-1.47;92.56
77165;BME280;66140;50.280;18.660;2023-04-03T05:03:34;99721.75;;;-1.46;92.65
77165;BME280;66140;50.280;18.660;2023-04-03T05:05:59;99710.53;;;-1.54;92.68
77165;BME280;66140;50.280;18.660;2023-04-03T05:08:25;99720.09;;;-1.54;92.29
77165;BME280;66140;50.280;18.660;2023-04-03T05:10:51;99724.38;;;-1.49;91.90
77165;BME280;66140;50.280;18.660;2023-04-03T05:13:18;99727.00;;;-1.50;91.66
77165;BME280;66140;50.280;18.660;2023-04-03T05:15:44;99726.13;;;-1.48;91.25
77165;BME280;66140;50.280;18.660;2023-04-03T05:18:10;99726.13;;;-1.48;91.72
77165;BME280;66140;50.280;18.660;2023-04-03T05:20:35;99737.41;;;-1.47;91.85
77165;BME280;66140;50.280;18.660;2023-04-03T05:23:02;99740.84;;;-1.47;91.99
77165;BME280;66140;50.280;18.660;2023-04-03T05:25:28;99744.34;;;-1.49;91.32
77165;BME280;66140;50.280;18.660;2023-04-03T05:27:54;99753.00;;;-1.50;91.38
77165;BME280;66140;50.280;18.660;2023-04-03T05:30:20;99748.66;;;-1.53;91.65
77165;BME280;66140;50.280;18.660;2023-04-03T05:32:46;99751.31;;;-1.57;91.60
77165;BME280;66140;50.280;18.660;2023-04-03T05:35:12;99748.66;;;-1.53;90.69
77165;BME280;66140;50.280;18.660;2023-04-03T05:37:38;99760.84;;;-1.55;90.28
77165;BME280;66140;50.280;18.660;2023-04-03T05:40:04;99750.44;;;-1.58;90.19
77165;BME280;66140;50.280;18.660;2023-04-03T05:42:30;99753.88;;;-1.50;90.75
77165;BME280;66140;50.280;18.660;2023-04-03T05:44:55;99764.28;;;-1.50;90.62
77165;BME280;66140;50.280;18.660;2023-04-03T05:47:21;99758.19;;;-1.46;91.07
77165;BME280;66140;50.280;18.660;2023-04-03T05:49:47;99763.34;;;-1.37;89.57
77165;BME280;66140;50.280;18.660;2023-04-03T05:52:23;99756.38;;;-1.32;90.16
77165;BME280;66140;50.280;18.660;2023-04-03T05:54:50;99746.78;;;-1.27;89.18
77165;BME280;66140;50.280;18.660;2023-04-03T05:57:16;99764.94;;;-1.11;89.66
77165;BME280;66140;50.280;18.660;2023-04-03T05:59:43;99761.44;;;-1.06;87.60
77165;BME280;66140;50.280;18.660;2023-04-03T06:02:20;99761.38;;;-0.97;87.82
77165;BME280;66140;50.280;18.660;2023-04-03T06:04:47;99750.91;;;-0.92;87.79
77165;BME280;66140;50.280;18.660;2023-04-03T06:07:15;99764.63;;;-0.70;87.14
77165;BME280;66140;50.280;18.660;2023-04-03T06:09:42;99757.63;;;-0.64;87.93
77165;BME280;66140;50.280;18.660;2023-04-03T06:12:07;99771.44;;;-0.54;86.29
77165;BME280;66140;50.280;18.660;2023-04-03T06:14:33;99755.94;;;-0.66;85.41
77165;BME280;66140;50.280;18.660;2023-04-03T06:16:59;99771.59;;;-0.71;85.29
77165;BME280;66140;50.280;18.660;2023-04-03T06:19:25;99764.72;;;-0.78;86.68
77165;BME280;66140;50.280;18.660;2023-04-03T06:21:51;99775.13;;;-0.79;86.35
77165;BME280;66140;50.280;18.660;2023-04-03T06:24:17;99776.88;;;-0.78;86.69
77165;BME280;66140;50.280;18.660;2023-04-03T06:26:43;99782.94;;;-0.81;85.19
77165;BME280;66140;50.280;18.660;2023-04-03T06:29:09;99778.50;;;-0.67;85.76
77165;BME280;66140;50.280;18.660;2023-04-03T06:31:35;99781.06;;;-0.61;86.25
77165;BME280;66140;50.280;18.660;2023-04-03T06:34:02;99779.28;;;-0.53;85.03
77165;BME280;66140;50.280;18.660;2023-04-03T06:36:28;99776.50;;;-0.36;83.84
77165;BME280;66140;50.280;18.660;2023-04-03T06:38:54;99793.72;;;-0.18;82.46
77165;BME280;66140;50.280;18.660;2023-04-03T06:41:20;99781.75;;;0.44;80.74
77165;BME280;66140;50.280;18.660;2023-04-03T06:43:46;99797.38;;;1.66;77.62
77165;BME280;66140;50.280;18.660;2023-04-03T06:46:20;99783.03;;;2.33;74.66
77165;BME280;66140;50.280;18.660;2023-04-03T06:48:47;99786.06;;;2.56;71.44
77165;BME280;66140;50.280;18.660;2023-04-03T06:51:27;99778.66;;;2.35;71.72
77165;BME280;66140;50.280;18.660;2023-04-03T06:53:54;99791.19;;;1.70;73.65
77165;BME280;66140;50.280;18.660;2023-04-03T06:56:20;99797.47;;;1.60;74.88
77165;BME280;66140;50.280;18.660;2023-04-03T06:58:48;99812.13;;;1.15;75.32
77165;BME280;66140;50.280;18.660;2023-04-03T07:01:16;99809.66;;;1.03;75.20
77165;BME280;66140;50.280;18.660;2023-04-03T07:03:43;99808.84;;;1.02;75.73
77165;BME280;66140;50.280;18.660;2023-04-03T07:06:11;99808.97;;;1.50;74.55
77165;BME280;66140;50.280;18.660;2023-04-03T07:08:37;99807.63;;;1.78;72.95
77165;BME280;66140;50.280;18.660;2023-04-03T07:11:03;99816.56;;;2.60;71.74
77165;BME280;66140;50.280;18.660;2023-04-03T07:13:29;99805.41;;;2.91;69.56
77165;BME280;66140;50.280;18.660;2023-04-03T07:15:55;99814.72;;;3.05;67.43
77165;BME280;66140;50.280;18.660;2023-04-03T07:18:20;99801.34;;;3.16;67.43
77165;BME280;66140;50.280;18.660;2023-04-03T07:20:47;99812.47;;;3.64;65.54
77165;BME280;66140;50.280;18.660;2023-04-03T07:23:12;99820.97;;;3.74;65.17
77165;BME280;66140;50.280;18.660;2023-04-03T07:25:48;99811.72;;;3.93;65.01
77165;BME280;66140;50.280;18.660;2023-04-03T07:28:15;99806.53;;;4.55;62.84
77165;BME280;66140;50.280;18.660;2023-04-03T07:30:50;99812.25;;;4.39;61.90
77165;BME280;66140;50.280;18.660;2023-04-03T07:33:20;99830.38;;;4.16;61.89
77165;BME280;66140;50.280;18.660;2023-04-03T07:35:48;99818.16;;;4.15;61.27
77165;BME280;66140;50.280;18.660;2023-04-03T07:38:13;99822.97;;;3.98;61.97
77165;BME280;66140;50.280;18.660;2023-04-03T07:40:39;99811.16;;;3.82;63.00
77165;BME280;66140;50.280;18.660;2023-04-03T07:43:05;99813.88;;;3.42;63.79
77165;BME280;66140;50.280;18.660;2023-04-03T07:45:33;99827.19;;;3.70;64.26
77165;BME280;66140;50.280;18.660;2023-04-03T07:48:00;99827.78;;;3.81;64.58
77165;BME280;66140;50.280;18.660;2023-04-03T07:50:26;99821.31;;;3.95;65.45
77165;BME280;66140;50.280;18.660;2023-04-03T07:52:52;99815.84;;;4.35;62.17
77165;BME280;66140;50.280;18.660;2023-04-03T07:55:19;99814.66;;;4.47;61.99
77165;BME280;66140;50.280;18.660;2023-04-03T07:57:45;99812.66;;;4.24;59.86
77165;BME280;66140;50.280;18.660;2023-04-03T08:00:11;99824.44;;;3.76;61.78
77165;BME280;66140;50.280;18.660;2023-04-03T08:02:37;99817.53;;;3.35;62.59
77165;BME280;66140;50.280;18.660;2023-04-03T08:05:03;99821.81;;;3.00;62.42
77165;BME280;66140;50.280;18.660;2023-04-03T08:07:28;99814.91;;;2.96;63.57
77165;BME280;66140;50.280;18.660;2023-04-03T08:09:54;99824.53;;;2.96;65.15
77165;BME280;66140;50.280;18.660;2023-04-03T08:12:19;99823.19;;;2.76;64.45
77165;BME280;66140;50.280;18.660;2023-04-03T08:14:45;99825.16;;;2.67;65.59
77165;BME280;66140;50.280;18.660;2023-04-03T08:17:10;99829.41;;;2.71;64.74
77165;BME280;66140;50.280;18.660;2023-04-03T08:19:39;99820.03;;;2.61;58.74
77165;BME280;66140;50.280;18.660;2023-04-03T08:22:05;99823.16;;;2.35;58.10
77165;BME280;66140;50.280;18.660;2023-04-03T08:24:34;99838.91;;;2.76;58.26
77165;BME280;66140;50.280;18.660;2023-04-03T08:26:59;99829.44;;;3.11;57.99
77165;BME280;66140;50.280;18.660;2023-04-03T08:29:25;99828.53;;;3.50;55.60
77165;BME280;66140;50.280;18.660;2023-04-03T08:31:51;99817.66;;;3.66;53.97
77165;BME280;66140;50.280;18.660;2023-04-03T08:34:18;99826.00;;;3.83;54.87
77165;BME280;66140;50.280;18.660;2023-04-03T08:36:44;99825.13;;;3.82;53.13
77165;BME280;66140;50.280;18.660;2023-04-03T08:39:10;99832.97;;;3.84;53.90
77165;BME280;66140;50.280;18.660;2023-04-03T08:41:44;99828.69;;;3.80;53.15
77165;BME280;66140;50.280;18.660;2023-04-03T08:47:09;99814.59;;;3.84;50.13
77165;BME280;66140;50.280;18.660;2023-04-03T08:49:42;99834.53;;;3.91;50.46
77165;BME280;66140;50.280;18.660;2023-04-03T08:52:15;99822.31;;;3.90;48.53
77165;BME280;66140;50.280;18.660;2023-04-03T08:54:57;99828.78;;;3.77;46.04
77165;BME280;66140;50.280;18.660;2023-04-03T08:59:56;99827.69;;;4.19;48.62
77165;BME280;66140;50.280;18.660;2023-04-03T09:02:38;99826.59;;;4.26;47.92
77165;BME280;66140;50.280;18.660;2023-04-03T09:05:20;99837.34;;;4.17;47.36
77165;BME280;66140;50.280;18.660;2023-04-03T09:10:48;99817.44;;;3.75;47.66
77165;BME280;66140;50.280;18.660;2023-04-03T09:13:54;99828.16;;;3.66;47.41
77165;BME280;66140;50.280;18.660;2023-04-03T09:16:47;99838.16;;;3.13;49.49
77165;BME280;66140;50.280;18.660;2023-04-03T09:19:36;99842.72;;;3.03;50.25
77165;BME280;66140;50.280;18.660;2023-04-03T09:22:20;99813.56;;;3.18;50.13
77165;BME280;66140;50.280;18.660;2023-04-03T09:27:21;99827.00;;;4.11;51.06
77165;BME280;66140;50.280;18.660;2023-04-03T09:29:46;99830.13;;;4.25;49.36
77165;BME280;66140;50.280;18.660;2023-04-03T09:32:22;99849.00;;;3.72;48.23
77165;BME280;66140;50.280;18.660;2023-04-03T09:34:52;99838.50;;;3.35;47.81
77165;BME280;66140;50.280;18.660;2023-04-03T09:40:47;99845.63;;;3.67;50.69
77165;BME280;66140;50.280;18.660;2023-04-03T09:43:21;99856.38;;;3.57;46.53
77165;BME280;66140;50.280;18.660;2023-04-03T09:45:49;99850.59;;;3.42;45.45
77165;BME280;66140;50.280;18.660;2023-04-03T09:48:21;99863.88;;;3.34;45.71
77165;BME280;66140;50.280;18.660;2023-04-03T09:53:42;99844.59;;;3.74;45.67
77165;BME280;66140;50.280;18.660;2023-04-03T09:58:40;99834.63;;;3.88;46.34
77165;BME280;66140;50.280;18.660;2023-04-03T10:04:22;99843.88;;;4.02;47.36
77165;BME280;66140;50.280;18.660;2023-04-03T10:06:48;99852.84;;;3.94;47.47
77165;BME280;66140;50.280;18.660;2023-04-03T10:14:37;99843.78;;;3.33;44.71
77165;BME280;66140;50.280;18.660;2023-04-03T10:19:58;99845.28;;;3.45;47.19
77165;BME280;66140;50.280;18.660;2023-04-03T10:25:29;99854.03;;;3.81;48.30
77165;BME280;66140;50.280;18.660;2023-04-03T10:28:16;99849.03;;;4.06;44.85
77165;BME280;66140;50.280;18.660;2023-04-03T10:31:06;99846.72;;;4.27;45.99
77165;BME280;66140;50.280;18.660;2023-04-03T10:36:38;99846.44;;;4.38;46.58
77165;BME280;66140;50.280;18.660;2023-04-03T10:39:14;99846.88;;;4.21;47.46
77165;BME280;66140;50.280;18.660;2023-04-03T10:41:53;99854.09;;;3.78;47.28
77165;BME280;66140;50.280;18.660;2023-04-03T10:44:41;99853.06;;;3.49;47.31
77165;BME280;66140;50.280;18.660;2023-04-03T10:47:40;99845.66;;;3.65;47.27
77165;BME280;66140;50.280;18.660;2023-04-03T10:55:40;99836.22;;;3.93;47.40
77165;BME280;66140;50.280;18.660;2023-04-03T10:58:21;99840.72;;;3.88;45.61
77165;BME280;66140;50.280;18.660;2023-04-03T11:00:50;99845.19;;;3.85;46.30
77165;BME280;66140;50.280;18.660;2023-04-03T11:03:30;99842.06;;;3.71;44.94
77165;BME280;66140;50.280;18.660;2023-04-03T11:06:00;99828.16;;;3.66;46.33
77165;BME280;66140;50.280;18.660;2023-04-03T11:08:34;99833.72;;;3.89;47.48
77165;BME280;66140;50.280;18.660;2023-04-03T11:11:09;99826.31;;;4.04;48.16
77165;BME280;66140;50.280;18.660;2023-04-03T11:13:48;99842.75;;;4.11;47.51
77165;BME280;66140;50.280;18.660;2023-04-03T11:16:21;99838.97;;;3.89;47.14
77165;BME280;66140;50.280;18.660;2023-04-03T11:21:40;99834.97;;;4.08;48.20
77165;BME280;66140;50.280;18.660;2023-04-03T11:24:17;99829.06;;;4.00;47.65
77165;BME280;66140;50.280;18.660;2023-04-03T11:26:47;99831.56;;;3.71;45.61
77165;BME280;66140;50.280;18.660;2023-04-03T11:29:19;99822.22;;;3.93;44.64
77165;BME280;66140;50.280;18.660;2023-04-03T11:34:33;99827.09;;;4.08;46.55
77165;BME280;66140;50.280;18.660;2023-04-03T11:37:06;99824.81;;;3.94;46.62
77165;BME280;66140;50.280;18.660;2023-04-03T11:39:38;99834.25;;;4.03;47.32
77165;BME280;66140;50.280;18.660;2023-04-03T11:42:30;99830.38;;;4.16;47.48
77165;BME280;66140;50.280;18.660;2023-04-03T11:48:03;99813.13;;;4.06;46.76
77165;BME280;66140;50.280;18.660;2023-04-03T11:50:39;99823.00;;;4.30;46.98
77165;BME280;66140;50.280;18.660;2023-04-03T12:05:49;99815.63;;;4.11;45.34
77165;BME280;66140;50.280;18.660;2023-04-03T12:18:58;99822.41;;;5.12;41.87
77165;BME280;66140;50.280;18.660;2023-04-03T12:38:10;99798.94;;;4.46;43.78
77165;BME280;66140;50.280;18.660;2023-04-03T12:46:19;99799.34;;;4.92;41.91
77165;BME280;66140;50.280;18.660;2023-04-03T12:48:54;99801.09;;;4.92;42.08
77165;BME280;66140;50.280;18.660;2023-04-03T12:51:21;99796.16;;;4.81;42.54
77165;BME280;66140;50.280;18.660;2023-04-03T12:53:50;99800.53;;;4.51;42.48
77165;BME280;66140;50.280;18.660;2023-04-03T12:56:29;99797.38;;;4.38;43.67
77165;BME280;66140;50.280;18.660;2023-04-03T12:59:12;99810.28;;;4.15;42.50
77165;BME280;66140;50.280;18.660;2023-04-03T13:01:38;99802.72;;;4.03;42.42
77165;BME280;66140;50.280;18.660;2023-04-03T13:04:04;99799.44;;;4.27;42.36
77165;BME280;66140;50.280;18.660;2023-04-03T13:06:41;99777.81;;;4.49;41.98
77165;BME280;66140;50.280;18.660;2023-04-03T13:09:20;99781.75;;;4.65;41.95
77165;BME280;66140;50.280;18.660;2023-04-03T13:11:57;99797.66;;;4.60;41.44
77165;BME280;66140;50.280;18.660;2023-04-03T13:14:25;99797.75;;;4.56;42.32
77165;BME280;66140;50.280;18.660;2023-04-03T13:19:37;99785.69;;;4.18;42.47
77165;BME280;66140;50.280;18.660;2023-04-03T13:22:08;99788.50;;;4.10;43.54
77165;BME280;66140;50.280;18.660;2023-04-03T13:24:37;99788.09;;;4.25;43.29
77165;BME280;66140;50.280;18.660;2023-04-03T13:27:06;99787.78;;;4.37;42.47
77165;BME280;66140;50.280;18.660;2023-04-03T13:29:37;99777.91;;;4.46;42.01
77165;BME280;66140;50.280;18.660;2023-04-03T13:32:13;99787.94;;;4.62;42.44
77165;BME280;66140;50.280;18.660;2023-04-03T13:34:43;99784.59;;;4.57;41.10
77165;BME280;66140;50.280;18.660;2023-04-03T13:37:29;99794.69;;;4.41;41.38
77165;BME280;66140;50.280;18.660;2023-04-03T13:42:44;99799.66;;;4.20;42.34
77165;BME280;66140;50.280;18.660;2023-04-03T13:47:43;99797.06;;;3.84;42.57
77165;BME280;66140;50.280;18.660;2023-04-03T13:50:28;99800.38;;;3.92;42.16
77165;BME280;66140;50.280;18.660;2023-04-03T13:53:01;99785.63;;;4.21;42.97
77165;BME280;66140;50.280;18.660;2023-04-03T13:55:31;99792.50;;;4.56;43.65
77165;BME280;66140;50.280;18.660;2023-04-03T13:58:20;99797.50;;;4.65;41.78
77165;BME280;66140;50.280;18.660;2023-04-03T14:01:41;99798.75;;;4.52;42.42
77165;BME280;66140;50.280;18.660;2023-04-03T14:04:00;99793.72;;;4.44;41.46
77165;BME280;66140;50.280;18.660;2023-04-03T14:06:26;99792.38;;;4.29;41.04
77165;BME280;66140;50.280;18.660;2023-04-03T14:08:52;99796.91;;;4.23;41.78
77165;BME280;66140;50.280;18.660;2023-04-03T14:11:28;99790.34;;;4.08;41.37
77165;BME280;66140;50.280;18.660;2023-04-03T14:13:55;99785.34;;;3.97;41.51
77165;BME280;66140;50.280;18.660;2023-04-03T14:16:28;99796.53;;;4.06;42.06
77165;BME280;66140;50.280;18.660;2023-04-03T14:18:55;99803.56;;;4.03;41.65
77165;BME280;66140;50.280;18.660;2023-04-03T14:21:22;99796.84;;;4.26;42.74
77165;BME280;66140;50.280;18.660;2023-04-03T14:23:48;99787.81;;;4.36;43.57
77165;BME280;66140;50.280;18.660;2023-04-03T14:26:16;99784.31;;;4.35;41.66
77165;BME280;66140;50.280;18.660;2023-04-03T14:28:44;99797.59;;;4.31;41.06
77165;BME280;66140;50.280;18.660;2023-04-03T14:31:11;99795.59;;;4.08;40.53
77165;BME280;66140;50.280;18.660;2023-04-03T14:33:37;99788.69;;;4.04;41.51
77165;BME280;66140;50.280;18.660;2023-04-03T14:36:13;99793.88;;;4.07;41.08
77165;BME280;66140;50.280;18.660;2023-04-03T14:38:39;99795.50;;;4.11;41.91
77165;BME280;66140;50.280;18.660;2023-04-03T14:41:04;99793.94;;;4.04;42.23
77165;BME280;66140;50.280;18.660;2023-04-03T14:43:30;99793.88;;;4.07;43.59
77165;BME280;66140;50.280;18.660;2023-04-03T14:45:56;99797.47;;;4.03;43.61
77165;BME280;66140;50.280;18.660;2023-04-03T14:48:24;99791.31;;;4.04;44.02
77165;BME280;66140;50.280;18.660;2023-04-03T14:50:52;99802.78;;;4.00;43.35
77165;BME280;66140;50.280;18.660;2023-04-03T14:53:18;99805.56;;;3.95;43.45
77165;BME280;66140;50.280;18.660;2023-04-03T14:55:48;99800.78;;;3.77;43.43
77165;BME280;66140;50.280;18.660;2023-04-03T14:58:16;99815.81;;;3.71;43.21
77165;BME280;66140;50.280;18.660;2023-04-03T15:00:43;99808.03;;;3.66;44.09
77165;BME280;66140;50.280;18.660;2023-04-03T15:03:17;99803.50;;;3.73;44.38
77165;BME280;66140;50.280;18.660;2023-04-03T15:05:43;99820.97;;;3.74;43.62
77165;BME280;66140;50.280;18.660;2023-04-03T15:10:44;99812.41;;;3.66;44.49
77165;BME280;66140;50.280;18.660;2023-04-03T15:13:12;99821.28;;;3.61;44.90
77165;BME280;66140;50.280;18.660;2023-04-03T15:15:38;99810.63;;;3.68;44.65
77165;BME280;66140;50.280;18.660;2023-04-03T15:18:04;99817.75;;;3.62;44.36
77165;BME280;66140;50.280;18.660;2023-04-03T15:20:29;99820.41;;;3.61;44.56
77165;BME280;66140;50.280;18.660;2023-04-03T15:22:57;99808.44;;;3.49;44.03
77165;BME280;66140;50.280;18.660;2023-04-03T15:25:25;99826.72;;;3.52;45.16
77165;BME280;66140;50.280;18.660;2023-04-03T15:27:53;99814.75;;;3.42;46.12
77165;BME280;66140;50.280;18.660;2023-04-03T15:30:19;99817.19;;;3.50;46.55
77165;BME280;66140;50.280;18.660;2023-04-03T15:32:45;99818.91;;;3.51;47.08
77165;BME280;66140;50.280;18.660;2023-04-03T15:35:11;99825.97;;;3.47;46.10
77165;BME280;66140;50.280;18.660;2023-04-03T15:37:37;99813.03;;;3.40;46.51
77165;BME280;66140;50.280;18.660;2023-04-03T15:40:04;99809.59;;;3.39;46.32
77165;BME280;66140;50.280;18.660;2023-04-03T15:42:49;99821.03;;;3.34;47.23
77165;BME280;66140;50.280;18.660;2023-04-03T15:45:15;99823.81;;;3.28;46.81
77165;BME280;66140;50.280;18.660;2023-04-03T15:47:41;99818.78;;;3.20;46.93
77165;BME280;66140;50.280;18.660;2023-04-03T15:50:07;99834.53;;;3.18;47.61
77165;BME280;66140;50.280;18.660;2023-04-03T15:52:33;99833.78;;;3.13;46.60
77165;BME280;66140;50.280;18.660;2023-04-03T15:54:59;99832.13;;;3.08;47.15
77165;BME280;66140;50.280;18.660;2023-04-03T15:57:25;99824.19;;;3.11;47.29
77165;BME280;66140;50.280;18.660;2023-04-03T15:59:52;99823.38;;;3.09;47.02
77165;BME280;66140;50.280;18.660;2023-04-03T16:02:18;99829.44;;;3.11;47.48
77165;BME280;66140;50.280;18.660;2023-04-03T16:04:43;99818.22;;;3.06;46.72
77165;BME280;66140;50.280;18.660;2023-04-03T16:07:09;99827.75;;;3.08;46.31
77165;BME280;66140;50.280;18.660;2023-04-03T16:09:35;99832.09;;;3.09;45.79
77165;BME280;66140;50.280;18.660;2023-04-03T16:14:45;99827.81;;;3.07;46.04
77165;BME280;66140;50.280;18.660;2023-04-03T16:17:11;99820.69;;;3.12;46.77
77165;BME280;66140;50.280;18.660;2023-04-03T16:19:36;99825.97;;;3.09;46.73
77165;BME280;66140;50.280;18.660;2023-04-03T16:22:02;99824.25;;;3.08;47.38
77165;BME280;66140;50.280;18.660;2023-04-03T16:24:27;99832.19;;;3.06;48.18
77165;BME280;66140;50.280;18.660;2023-04-03T16:26:55;99837.59;;;2.99;47.62
77165;BME280;66140;50.280;18.660;2023-04-03T16:29:20;99840.50;;;2.83;47.63
77165;BME280;66140;50.280;18.660;2023-04-03T16:31:47;99833.66;;;2.76;46.91
77165;BME280;66140;50.280;18.660;2023-04-03T16:34:13;99834.56;;;2.75;46.67
77165;BME280;66140;50.280;18.660;2023-04-03T16:36:38;99846.00;;;2.71;46.58
77165;BME280;66140;50.280;18.660;2023-04-03T16:39:04;99842.53;;;2.69;48.71
77165;BME280;66140;50.280;18.660;2023-04-03T16:41:30;99846.00;;;2.71;48.37
77165;BME280;66140;50.280;18.660;2023-04-03T16:43:55;99842.63;;;2.66;48.22
77165;BME280;66140;50.280;18.660;2023-04-03T16:46:21;99858.34;;;2.66;50.11
77165;BME280;66140;50.280;18.660;2023-04-03T16:48:47;99852.38;;;2.58;49.87
77165;BME280;66140;50.280;18.660;2023-04-03T16:51:13;99854.13;;;2.58;50.36
77165;BME280;66140;50.280;18.660;2023-04-03T16:53:41;99851.72;;;2.47;50.00
77165;BME280;66140;50.280;18.660;2023-04-03T16:56:07;99852.66;;;2.45;51.05
77165;BME280;66140;50.280;18.660;2023-04-03T16:58:33;99850.09;;;2.43;51.10
77165;BME280;66140;50.280;18.660;2023-04-03T17:01:11;99841.38;;;2.41;51.03
77165;BME280;66140;50.280;18.660;2023-04-03T17:03:36;99851.84;;;2.41;50.77
77165;BME280;66140;50.280;18.660;2023-04-03T17:06:02;99857.13;;;2.38;50.93
77165;BME280;66140;50.280;18.660;2023-04-03T17:08:28;99852.00;;;2.33;51.33
77165;BME280;66140;50.280;18.660;2023-04-03T17:10:53;99864.19;;;2.36;50.93
77165;BME280;66140;50.280;18.660;2023-04-03T17:13:20;99871.13;;;2.37;51.14
77165;BME280;66140;50.280;18.660;2023-04-03T17:15:45;99857.34;;;2.27;51.41
77165;BME280;66140;50.280;18.660;2023-04-03T17:18:14;99870.44;;;2.26;51.45
77165;BME280;66140;50.280;18.660;2023-04-03T17:20:40;99872.19;;;2.27;51.18
77165;BME280;66140;50.280;18.660;2023-04-03T17:23:08;99862.72;;;2.20;53.32
77165;BME280;66140;50.280;18.660;2023-04-03T17:25:34;99880.16;;;2.21;52.17
77165;BME280;66140;50.280;18.660;2023-04-03T17:28:00;99876.66;;;2.22;51.78
77165;BME280;66140;50.280;18.660;2023-04-03T17:30:25;99872.38;;;2.16;52.23
77165;BME280;66140;50.280;18.660;2023-04-03T17:32:51;99885.50;;;2.13;51.18
77165;BME280;66140;50.280;18.660;2023-04-03T17:35:20;99883.84;;;2.11;50.97
77165;BME280;66140;50.280;18.660;2023-04-03T17:37:47;99881.25;;;2.08;51.60
77165;BME280;66140;50.280;18.660;2023-04-03T17:40:14;99883.94;;;2.05;50.99
77165;BME280;66140;50.280;18.660;2023-04-03T17:42:42;99887.44;;;2.04;50.94
77165;BME280;66140;50.280;18.660;2023-04-03T17:45:08;99897.84;;;2.05;51.09
77165;BME280;66140;50.280;18.660;2023-04-03T17:47:33;99891.84;;;2.00;51.83
77165;BME280;66140;50.280;18.660;2023-04-03T17:49:59;99885.75;;;1.99;51.05
77165;BME280;66140;50.280;18.660;2023-04-03T17:52:25;99897.91;;;2.04;52.08
77165;BME280;66140;50.280;18.660;2023-04-03T17:54:53;99900.47;;;2.05;52.30
77165;BME280;66140;50.280;18.660;2023-04-03T17:57:19;99892.78;;;1.96;52.64
77165;BME280;66140;50.280;18.660;2023-04-03T17:59:45;99891.03;;;1.96;53.54
77165;BME280;66140;50.280;18.660;2023-04-03T18:02:11;99894.53;;;1.95;53.97
77165;BME280;66140;50.280;18.660;2023-04-03T18:04:36;99894.53;;;1.95;52.74
77165;BME280;66140;50.280;18.660;2023-04-03T18:07:02;99895.50;;;1.91;53.12
77165;BME280;66140;50.280;18.660;2023-04-03T18:09:32;99902.44;;;1.92;52.50
77165;BME280;66140;50.280;18.660;2023-04-03T18:12:02;99894.66;;;1.89;53.36
77165;BME280;66140;50.280;18.660;2023-04-03T18:14:29;99896.41;;;1.87;53.55
77165;BME280;66140;50.280;18.660;2023-04-03T18:16:55;99905.22;;;1.83;53.12
77165;BME280;66140;50.280;18.660;2023-04-03T18:19:22;99905.19;;;1.85;53.30
77165;BME280;66140;50.280;18.660;2023-04-03T18:21:48;99914.72;;;1.87;52.65
77165;BME280;66140;50.280;18.660;2023-04-03T18:24:16;99917.34;;;1.87;52.55
77165;BME280;66140;50.280;18.660;2023-04-03T18:26:42;99912.19;;;1.84;53.23
77165;BME280;66140;50.280;18.660;2023-04-03T18:29:10;99907.03;;;1.78;53.80
77165;BME280;66140;50.280;18.660;2023-04-03T18:31:39;99911.31;;;1.82;53.11
77165;BME280;66140;50.280;18.660;2023-04-03T18:34:06;99914.03;;;1.76;53.08
77165;BME280;66140;50.280;18.660;2023-04-03T18:36:31;99901.91;;;1.72;53.76
77165;BME280;66140;50.280;18.660;2023-04-03T18:38:56;99901.94;;;1.69;54.89
77165;BME280;66140;50.280;18.660;2023-04-03T18:41:25;99920.16;;;1.74;54.29
77165;BME280;66140;50.280;18.660;2023-04-03T18:43:52;99908.84;;;1.73;53.44
77165;BME280;66140;50.280;18.660;2023-04-03T18:46:18;99923.69;;;1.73;54.05
77165;BME280;66140;50.280;18.660;2023-04-03T18:48:44;99927.19;;;1.72;53.84
77165;BME280;66140;50.280;18.660;2023-04-03T18:51:11;99911.59;;;1.66;54.19
77165;BME280;66140;50.280;18.660;2023-04-03T18:53:37;99915.97;;;1.65;54.52
77165;BME280;66140;50.280;18.660;2023-04-03T18:56:03;99920.31;;;1.65;53.99
77165;BME280;66140;50.280;18.660;2023-04-03T18:58:28;99916.00;;;1.62;54.47
77165;BME280;66140;50.280;18.660;2023-04-03T19:00:54;99908.25;;;1.56;54.75
77165;BME280;66140;50.280;18.660;2023-04-03T19:03:19;99925.59;;;1.61;54.79
77165;BME280;66140;50.280;18.660;2023-04-03T19:05:45;99906.47;;;1.58;55.79
77165;BME280;66140;50.280;18.660;2023-04-03T19:08:11;99901.34;;;1.52;54.44
77165;BME280;66140;50.280;18.660;2023-04-03T19:10:37;99908.31;;;1.50;54.98
77165;BME280;66140;50.280;18.660;2023-04-03T19:13:02;99903.97;;;1.49;55.34
77165;BME280;66140;50.280;18.660;2023-04-03T19:15:28;99905.72;;;1.50;55.59
77165;BME280;66140;50.280;18.660;2023-04-03T19:17:54;99902.31;;;1.45;56.80
77165;BME280;66140;50.280;18.660;2023-04-03T19:20:19;99908.44;;;1.42;57.08
77165;BME280;66140;50.280;18.660;2023-04-03T19:22:45;99919.75;;;1.43;56.87
77165;BME280;66140;50.280;18.660;2023-04-03T19:25:11;99919.81;;;1.40;57.25
77165;BME280;66140;50.280;18.660;2023-04-03T19:27:37;99928.47;;;1.42;57.08
77165;BME280;66140;50.280;18.660;2023-04-03T19:30:05;99914.63;;;1.37;57.21
77165;BME280;66140;50.280;18.660;2023-04-03T19:32:31;99913.72;;;1.39;57.86
77165;BME280;66140;50.280;18.660;2023-04-03T19:34:57;99911.19;;;1.32;58.21
77165;BME280;66140;50.280;18.660;2023-04-03T19:37:23;99914.69;;;1.31;59.00
77165;BME280;66140;50.280;18.660;2023-04-03T19:39:50;99904.31;;;1.25;59.63
77165;BME280;66140;50.280;18.660;2023-04-03T19:42:15;99900.91;;;1.19;59.36
77165;BME280;66140;50.280;18.660;2023-04-03T19:44:43;99921.75;;;1.24;60.14
77165;BME280;66140;50.280;18.660;2023-04-03T19:47:09;99914.88;;;1.18;60.02
77165;BME280;66140;50.280;18.660;2023-04-03T19:49:36;99909.53;;;1.28;59.54
77165;BME280;66140;50.280;18.660;2023-04-03T19:52:02;99906.91;;;1.28;59.90
77165;BME280;66140;50.280;18.660;2023-04-03T19:54:30;99911.28;;;1.27;59.49
77165;BME280;66140;50.280;18.660;2023-04-03T19:56:56;99904.31;;;1.25;60.12
77165;BME280;66140;50.280;18.660;2023-04-03T19:59:22;99905.31;;;1.16;60.13